createdAt,value
2019-03-31T00:03:00.908Z,9.20
2019-03-31T00:07:56.813Z,9.45
2019-03-31T00:12:52.842Z,9.61
2019-03-31T00:17:48.828Z,9.74
2019-03-31T00:22:45.635Z,9.83
2019-03-31T00:27:41.543Z,9.89
2019-03-31T00:32:37.455Z,9.61
2019-03-31T00:37:33.374Z,9.57
2019-03-31T00:42:29.289Z,9.57
2019-03-31T00:47:25.198Z,9.57
2019-03-31T00:52:21.114Z,9.64
2019-03-31T00:57:17.055Z,9.45
2019-03-31T01:02:16.145Z,9.74
2019-03-31T01:07:12.466Z,10.13
2019-03-31T01:12:08.486Z,10.09
2019-03-31T01:17:06.616Z,9.57
2019-03-31T01:22:02.927Z,9.16
2019-03-31T01:26:58.849Z,8.83
2019-03-31T01:31:55.654Z,8.35
2019-03-31T01:36:51.573Z,8.49
2019-03-31T01:41:47.583Z,8.11
2019-03-31T01:46:43.538Z,8.28
2019-03-31T01:51:39.444Z,8.68
2019-03-31T01:56:35.388Z,8.52
2019-03-31T02:01:31.398Z,8.39
2019-03-31T02:06:27.386Z,8.42
2019-03-31T02:11:23.293Z,7.94
2019-03-31T02:16:19.209Z,7.78
2019-03-31T02:21:15.231Z,8.19
2019-03-31T02:26:11.143Z,8.26
2019-03-31T02:31:07.156Z,8.13
2019-03-31T02:36:03.175Z,8.26
2019-03-31T02:40:59.190Z,8.11
2019-03-31T02:45:55.102Z,8.48
2019-03-31T02:50:52.021Z,8.59
2019-03-31T02:55:48.166Z,9.09
2019-03-31T03:00:44.406Z,9.08
2019-03-31T03:05:40.708Z,8.93
2019-03-31T03:10:37.239Z,8.94
2019-03-31T03:16:02.983Z,8.84
2019-03-31T03:20:58.999Z,8.87
2019-03-31T03:25:56.795Z,8.94
2019-03-31T03:30:52.842Z,8.80
2019-03-31T03:35:48.860Z,8.78
2019-03-31T03:40:44.864Z,8.53
2019-03-31T03:45:40.775Z,8.37
2019-03-31T03:50:36.697Z,8.39
2019-03-31T03:55:32.605Z,8.46
2019-03-31T04:00:28.546Z,8.44
2019-03-31T04:05:24.557Z,8.43
2019-03-31T04:10:44.417Z,8.20
2019-03-31T04:15:40.400Z,8.31
2019-03-31T04:20:39.261Z,8.21
2019-03-31T04:25:34.119Z,8.13
2019-03-31T04:30:30.046Z,7.99
2019-03-31T04:35:25.988Z,7.96
2019-03-31T04:40:21.918Z,7.98
2019-03-31T04:45:17.810Z,7.85
2019-03-31T04:50:13.725Z,7.85
2019-03-31T04:55:09.793Z,7.64
2019-03-31T05:00:06.004Z,7.54
2019-03-31T05:05:02.111Z,7.21
2019-03-31T05:09:58.020Z,7.06
2019-03-31T05:14:53.926Z,6.92
2019-03-31T05:19:49.837Z,6.90
2019-03-31T05:24:46.478Z,6.81
2019-03-31T05:29:42.975Z,6.68
2019-03-31T05:34:38.847Z,6.49
2019-03-31T05:39:34.753Z,6.45
2019-03-31T05:44:30.659Z,6.45
2019-03-31T05:49:26.590Z,6.49
2019-03-31T05:54:23.437Z,6.58
2019-03-31T05:59:19.449Z,6.62
2019-03-31T06:04:15.383Z,6.65
2019-03-31T06:09:11.381Z,6.55
2019-03-31T06:14:07.293Z,6.51
2019-03-31T06:19:03.202Z,6.71
2019-03-31T06:24:17.016Z,6.75
2019-03-31T06:29:13.046Z,6.75
2019-03-31T06:34:08.953Z,6.91
2019-03-31T06:39:06.065Z,7.07
2019-03-31T06:44:01.976Z,7.29
2019-03-31T06:48:57.943Z,7.31
2019-03-31T06:53:53.871Z,7.44
2019-03-31T06:58:49.803Z,7.60
2019-03-31T07:03:45.720Z,7.86
2019-03-31T07:08:41.956Z,8.02
2019-03-31T07:13:37.973Z,7.90
2019-03-31T07:18:34.389Z,7.90
2019-03-31T07:23:30.488Z,8.38
2019-03-31T07:28:26.397Z,8.49
2019-03-31T07:33:22.306Z,8.69
2019-03-31T07:38:18.571Z,8.62
2019-03-31T07:43:14.723Z,8.79
2019-03-31T07:48:10.746Z,8.59
2019-03-31T07:53:06.679Z,8.18
2019-03-31T07:58:02.742Z,8.50
2019-03-31T08:03:00.295Z,8.65
2019-03-31T08:07:56.575Z,8.74
2019-03-31T08:12:52.501Z,9.05
2019-03-31T08:17:49.472Z,9.07
2019-03-31T08:22:45.584Z,9.74
2019-03-31T08:27:41.521Z,9.75
2019-03-31T08:32:37.533Z,9.86
2019-03-31T08:37:33.721Z,9.50
2019-03-31T08:42:29.646Z,9.46
2019-03-31T08:47:25.533Z,9.55
2019-03-31T08:52:21.516Z,9.45
2019-03-31T08:57:17.504Z,9.86
2019-03-31T09:02:30.852Z,10.02
2019-03-31T09:07:26.885Z,10.04
2019-03-31T09:12:22.868Z,9.92
2019-03-31T09:17:19.000Z,10.20
2019-03-31T09:22:15.046Z,10.55
2019-03-31T09:27:11.063Z,10.43
2019-03-31T09:32:07.042Z,10.70
2019-03-31T09:37:03.138Z,10.78
2019-03-31T09:41:59.094Z,10.48
2019-03-31T09:46:55.001Z,10.24
2019-03-31T09:51:50.969Z,10.01
2019-03-31T09:56:46.901Z,10.36
2019-03-31T10:01:42.835Z,11.25
2019-03-31T10:06:38.859Z,10.85
2019-03-31T10:11:34.888Z,10.98
2019-03-31T10:16:30.804Z,10.74
2019-03-31T10:21:26.721Z,10.35
2019-03-31T10:26:31.901Z,10.87
2019-03-31T10:31:20.565Z,10.31
2019-03-31T10:36:16.562Z,9.52
2019-03-31T10:41:12.487Z,9.87
2019-03-31T10:46:08.397Z,10.33
2019-03-31T10:51:04.331Z,10.45
2019-03-31T10:56:00.318Z,10.93
2019-03-31T11:00:56.235Z,10.69
2019-03-31T11:05:52.169Z,11.11
2019-03-31T11:10:48.093Z,11.60
2019-03-31T11:15:44.114Z,12.17
2019-03-31T11:20:40.030Z,11.92
2019-03-31T11:25:35.937Z,10.95
2019-03-31T11:30:32.224Z,11.34
2019-03-31T11:35:28.160Z,11.53
2019-03-31T11:40:24.094Z,10.40
2019-03-31T11:45:20.097Z,10.22
2019-03-31T11:50:16.415Z,10.49
2019-03-31T11:55:13.147Z,10.51
2019-03-31T12:05:23.262Z,11.52
2019-03-31T12:10:20.057Z,11.40
2019-03-31T12:15:16.210Z,11.47
2019-03-31T12:20:13.157Z,11.47
2019-03-31T12:25:09.943Z,11.47
2019-03-31T12:30:06.231Z,10.84
2019-03-31T12:35:04.233Z,10.72
2019-03-31T12:40:00.239Z,11.56
2019-03-31T12:44:56.372Z,11.75
2019-03-31T12:49:52.297Z,12.93
2019-03-31T12:54:50.947Z,14.51
2019-03-31T12:59:46.916Z,12.88
2019-03-31T13:04:42.822Z,12.64
2019-03-31T13:09:38.765Z,12.13
2019-03-31T13:14:34.680Z,12.20
2019-03-31T13:19:30.597Z,11.53
2019-03-31T13:29:46.618Z,11.69
2019-03-31T13:34:42.532Z,12.23
2019-03-31T13:39:38.462Z,12.44
2019-03-31T13:44:34.401Z,12.37
2019-03-31T13:49:30.332Z,13.47
2019-03-31T13:54:27.075Z,13.28
2019-03-31T13:59:23.094Z,14.04
2019-03-31T14:04:19.015Z,13.10
2019-03-31T14:09:14.973Z,13.63
2019-03-31T14:14:10.893Z,12.08
2019-03-31T14:19:06.835Z,12.41
2019-03-31T14:24:02.883Z,13.25
2019-03-31T14:29:01.276Z,13.62
2019-03-31T14:33:57.312Z,12.64
2019-03-31T14:38:53.266Z,12.07
2019-03-31T14:43:49.184Z,11.64
2019-03-31T14:48:45.135Z,12.41
2019-03-31T14:53:41.077Z,12.16
2019-03-31T14:58:37.033Z,12.24
2019-03-31T15:03:32.948Z,12.43
2019-03-31T15:08:28.888Z,12.80
2019-03-31T15:13:24.811Z,11.60
2019-03-31T15:18:24.720Z,11.41
2019-03-31T15:23:29.151Z,12.12
2019-03-31T15:28:28.027Z,12.33
2019-03-31T15:33:26.355Z,12.04
2019-03-31T15:38:25.725Z,11.89
2019-03-31T15:43:22.623Z,12.17
2019-03-31T15:48:18.624Z,12.65
2019-03-31T15:53:14.812Z,12.75
2019-03-31T15:58:10.835Z,12.59
2019-03-31T16:03:07.402Z,12.27
2019-03-31T16:08:03.395Z,11.53
2019-03-31T16:12:59.478Z,12.33
2019-03-31T16:17:55.400Z,12.05
2019-03-31T16:22:51.314Z,12.37
2019-03-31T16:27:47.235Z,12.58
2019-03-31T16:32:43.371Z,11.85
2019-03-31T16:37:40.106Z,12.29
2019-03-31T16:42:38.646Z,13.36
2019-03-31T16:47:39.762Z,12.38
2019-03-31T16:52:38.622Z,12.15
2019-03-31T16:57:36.105Z,12.36
2019-03-31T17:02:32.966Z,12.59
2019-03-31T17:07:29.009Z,12.36
2019-03-31T17:12:26.108Z,12.07
2019-03-31T17:17:22.549Z,12.40
2019-03-31T17:22:18.491Z,11.97
2019-03-31T17:27:14.518Z,11.91
2019-03-31T17:32:11.067Z,11.92
2019-03-31T17:37:06.982Z,11.08
2019-03-31T17:42:02.927Z,10.27
2019-03-31T17:46:58.841Z,10.06
2019-03-31T17:51:54.784Z,9.99
2019-03-31T17:56:50.705Z,9.62
2019-03-31T18:01:52.219Z,9.42
2019-03-31T18:06:52.953Z,9.35
2019-03-31T18:11:56.780Z,9.17
2019-03-31T18:16:55.092Z,9.14
2019-03-31T18:21:51.781Z,8.92
2019-03-31T18:26:48.565Z,8.75
2019-03-31T18:31:44.520Z,8.61
2019-03-31T18:36:40.469Z,8.65
2019-03-31T18:41:36.404Z,8.48
2019-03-31T18:46:32.688Z,8.44
2019-03-31T18:51:28.808Z,8.43
2019-03-31T18:56:45.009Z,8.21
2019-03-31T19:01:42.974Z,8.14
2019-03-31T19:06:40.807Z,8.05
2019-03-31T19:11:53.698Z,8.00
2019-03-31T19:16:51.556Z,7.78
2019-03-31T19:21:55.488Z,7.65
2019-03-31T19:27:09.875Z,7.60
2019-03-31T19:32:07.747Z,7.57
2019-03-31T19:37:20.763Z,7.35
2019-03-31T19:42:18.592Z,7.38
2019-03-31T19:47:20.977Z,7.09
2019-03-31T19:52:35.854Z,7.06
2019-03-31T19:57:50.425Z,6.96
2019-03-31T20:02:57.500Z,6.81
2019-03-31T20:08:13.496Z,6.80
2019-03-31T20:13:17.142Z,6.72
2019-03-31T20:18:15.025Z,6.73
2019-03-31T20:23:15.813Z,6.60
2019-03-31T20:28:16.446Z,6.41
2019-03-31T20:33:14.306Z,6.21
2019-03-31T20:38:12.220Z,6.13
2019-03-31T20:43:12.791Z,6.01
2019-03-31T20:48:08.812Z,5.93
2019-03-31T20:53:04.877Z,5.91
2019-03-31T20:58:00.923Z,5.88
2019-03-31T21:02:56.861Z,5.83
2019-03-31T21:07:52.800Z,5.64
2019-03-31T21:12:48.840Z,5.62
2019-03-31T21:17:44.864Z,5.53
2019-03-31T21:22:40.894Z,5.38
2019-03-31T21:27:36.827Z,5.38
2019-03-31T21:32:32.746Z,5.28
2019-03-31T21:37:28.684Z,5.20
2019-03-31T21:42:24.651Z,5.18
2019-03-31T21:47:20.567Z,5.09
2019-03-31T21:52:16.496Z,5.05
2019-03-31T21:57:12.438Z,4.94
2019-03-31T22:02:08.350Z,4.94
2019-03-31T22:07:04.284Z,4.81
2019-03-31T22:12:00.196Z,4.74
2019-03-31T22:16:56.216Z,4.79
2019-03-31T22:21:52.127Z,4.67
2019-03-31T22:26:48.064Z,4.62
2019-03-31T22:31:44.013Z,4.59
2019-03-31T22:36:39.977Z,4.59
2019-03-31T22:41:35.899Z,4.57
2019-03-31T22:46:31.860Z,4.38
2019-03-31T22:51:27.783Z,4.38
2019-03-31T22:56:23.732Z,4.41
2019-03-31T23:01:19.694Z,4.29
2019-03-31T23:06:15.613Z,4.27
2019-03-31T23:11:11.547Z,4.20
2019-03-31T23:16:07.464Z,4.22
2019-03-31T23:21:03.400Z,4.16
2019-03-31T23:25:59.344Z,4.18
2019-03-31T23:30:55.279Z,4.02
2019-03-31T23:35:51.195Z,4.15
2019-03-31T23:40:47.214Z,4.08
2019-03-31T23:45:43.212Z,4.09
2019-03-31T23:50:39.159Z,4.11
2019-03-31T23:55:35.276Z,4.06
